Time;durP1;ratioP1;P1;durP2;ratioP2;P2;SDS_P1;SDS_P2;PMS_P1;PMS_P2;Temp;Humidity;BMP_temperature;BMP_pressure;BME280_temperature;BME280_humidity;BME280_pressure;Samples;Min_cycle;Max_cycle;Signal;HPM_P1;HPM_P2
2021/11/23 00:00:44;;;;;;;5.38;3.15;;;3.80;99.90;;;;;;4881220;29;20500;-75
2021/11/23 00:03:11;;;;;;;3.15;2.72;;;3.80;99.90;;;;;;4899225;29;20394;-88
2021/11/23 00:05:37;;;;;;;3.88;3.00;;;3.80;99.90;;;;;;4882218;29;20441;-84
2021/11/23 00:08:03;;;;;;;3.40;2.78;;;3.80;99.90;;;;;;4880688;29;20417;-85
2021/11/23 00:10:30;;;;;;;4.90;3.00;;;3.80;99.90;;;;;;4881845;29;20039;-91
2021/11/23 00:12:56;;;;;;;5.00;3.40;;;3.90;99.90;;;;;;4881609;29;20024;-77
2021/11/23 00:15:21;;;;;;;4.20;2.90;;;3.90;99.90;;;;;;4880103;29;20021;-80
2021/11/23 00:17:47;;;;;;;4.32;3.40;;;3.90;99.90;;;;;;4880977;29;20370;-78
2021/11/23 00:20:13;;;;;;;5.28;3.60;;;3.90;99.90;;;;;;4898143;29;20477;-78
2021/11/23 00:22:39;;;;;;;4.07;3.30;;;3.90;99.90;;;;;;4880520;29;20033;-77
2021/11/23 00:25:05;;;;;;;3.92;3.00;;;3.90;99.90;;;;;;4880853;29;20030;-77
2021/11/23 00:27:31;;;;;;;4.32;2.90;;;3.90;99.90;;;;;;4881712;29;20477;-87
2021/11/23 00:29:57;;;;;;;4.28;3.22;;;3.90;99.90;;;;;;4880700;29;20016;-86
2021/11/23 00:32:22;;;;;;;4.03;3.22;;;3.90;99.90;;;;;;4881831;29;20035;-89
2021/11/23 00:34:48;;;;;;;6.15;3.63;;;4.00;99.90;;;;;;4881154;29;20021;-81
2021/11/23 00:37:14;;;;;;;8.50;4.10;;;4.00;99.90;;;;;;4880602;29;20474;-82
2021/11/23 00:39:39;;;;;;;5.35;3.45;;;4.10;99.90;;;;;;4881244;29;20466;-78
2021/11/23 00:42:05;;;;;;;7.07;3.60;;;4.10;99.90;;;;;;4898383;29;20033;-90
2021/11/23 00:44:31;;;;;;;5.07;3.40;;;4.20;99.90;;;;;;4880860;29;20021;-89
2021/11/23 00:46:57;;;;;;;5.22;4.03;;;4.30;99.90;;;;;;4880899;29;20025;-89
2021/11/23 00:49:23;;;;;;;6.72;4.75;;;4.40;99.90;;;;;;4881416;29;20508;-79
2021/11/23 00:51:49;;;;;;;5.57;4.70;;;4.50;99.90;;;;;;4897297;29;20033;-91
2021/11/23 00:54:14;;;;;;;9.32;5.63;;;4.50;99.90;;;;;;4880828;29;20040;-77
2021/11/23 00:56:40;;;;;;;5.72;4.20;;;4.60;99.90;;;;;;4879988;29;20048;-76
2021/11/23 00:59:06;;;;;;;4.82;3.78;;;4.70;99.90;;;;;;4880635;29;20115;-81
2021/11/23 01:01:32;;;;;;;5.50;3.85;;;4.70;99.90;;;;;;4881110;29;20044;-79
2021/11/23 01:03:57;;;;;;;6.43;3.78;;;4.80;99.90;;;;;;4880165;29;20032;-75
2021/11/23 01:06:23;;;;;;;6.13;3.45;;;4.90;99.90;;;;;;4898051;29;20392;-79
2021/11/23 01:08:49;;;;;;;6.43;3.33;;;4.90;99.90;;;;;;4880675;29;20044;-91
2021/11/23 01:11:16;;;;;;;3.92;3.40;;;5.00;99.90;;;;;;4880215;29;20028;-78
2021/11/23 01:13:43;;;;;;;4.85;2.97;;;5.10;99.90;;;;;;4897305;29;20453;-90
2021/11/23 01:16:09;;;;;;;3.55;2.70;;;5.20;99.90;;;;;;4880516;29;20028;-76
2021/11/23 01:18:35;;;;;;;3.03;2.42;;;5.20;99.90;;;;;;4896961;29;20103;-77
2021/11/23 01:21:02;;;;;;;3.85;2.67;;;5.30;99.90;;;;;;4880081;29;20060;-76
2021/11/23 01:23:28;;;;;;;3.35;2.60;;;5.40;99.90;;;;;;4880720;29;20020;-76
2021/11/23 01:25:54;;;;;;;3.08;2.78;;;5.40;99.90;;;;;;4896857;29;20021;-75
2021/11/23 01:28:20;;;;;;;4.50;2.58;;;5.40;99.90;;;;;;4880280;29;20029;-89
2021/11/23 01:30:46;;;;;;;3.08;2.40;;;5.50;99.90;;;;;;4880403;29;20050;-89
2021/11/23 01:33:12;;;;;;;4.07;2.67;;;5.50;99.90;;;;;;4896590;29;20513;-85
2021/11/23 01:35:38;;;;;;;3.33;2.83;;;5.60;99.90;;;;;;4880503;29;20079;-77
2021/11/23 01:38:03;;;;;;;4.13;2.70;;;5.60;99.90;;;;;;4879753;29;20037;-89
2021/11/23 01:40:29;;;;;;;2.85;2.42;;;5.70;99.90;;;;;;4880121;29;20081;-87
2021/11/23 01:42:56;;;;;;;5.05;2.90;;;5.70;99.90;;;;;;4897671;29;20107;-87
2021/11/23 01:45:22;;;;;;;5.32;3.08;;;5.80;99.90;;;;;;4897287;29;20512;-80
2021/11/23 01:47:48;;;;;;;4.65;2.47;;;5.80;99.90;;;;;;4896233;29;20040;-81
2021/11/23 01:50:16;;;;;;;3.75;2.33;;;5.80;99.90;;;;;;4880446;29;20037;-79
2021/11/23 01:52:47;;;;;;;6.78;3.80;;;5.90;99.90;;;;;;4896863;29;20032;-88
2021/11/23 01:55:13;;;;;;;3.28;2.78;;;5.90;99.90;;;;;;4877233;29;20056;-89
2021/11/23 01:57:38;;;;;;;4.22;2.33;;;5.90;99.90;;;;;;4861637;29;20024;-79
2021/11/23 02:00:07;;;;;;;5.15;2.50;;;6.00;99.90;;;;;;4877725;29;20044;-81
2021/11/23 02:02:32;;;;;;;3.28;2.42;;;6.00;99.90;;;;;;4861717;29;20021;-77
2021/11/23 02:04:58;;;;;;;4.38;2.90;;;6.00;99.90;;;;;;4878161;29;20378;-82
2021/11/23 02:07:24;;;;;;;3.55;2.92;;;6.00;99.90;;;;;;4861463;29;20066;-88
2021/11/23 02:09:49;;;;;;;4.80;2.78;;;6.10;99.90;;;;;;4861378;29;20033;-81
2021/11/23 02:12:15;;;;;;;6.20;3.72;;;6.10;99.90;;;;;;4877830;29;20410;-89
2021/11/23 02:14:41;;;;;;;3.30;2.60;;;6.10;99.90;;;;;;4860907;29;20040;-89
2021/11/23 02:17:07;;;;;;;5.13;3.13;;;6.10;99.90;;;;;;4861315;29;20021;-82
2021/11/23 02:19:32;;;;;;;4.25;3.80;;;6.20;99.90;;;;;;4861679;29;20029;-77
2021/11/23 02:21:58;;;;;;;4.97;3.40;;;6.20;99.90;;;;;;4860797;29;20051;-76
2021/11/23 02:24:23;;;;;;;5.53;3.67;;;6.20;99.90;;;;;;4878259;29;20053;-77
2021/11/23 02:26:49;;;;;;;5.82;3.25;;;6.20;99.90;;;;;;4877705;29;20056;-88
2021/11/23 02:29:15;;;;;;;4.68;3.65;;;6.20;99.90;;;;;;4860751;29;20588;-80
2021/11/23 02:31:41;;;;;;;4.55;3.45;;;6.20;99.90;;;;;;4877909;29;20029;-87
2021/11/23 02:34:07;;;;;;;5.80;4.00;;;6.20;99.90;;;;;;4877051;29;20240;-80
2021/11/23 02:36:35;;;;;;;6.30;3.85;;;6.20;99.90;;;;;;4860612;29;20033;-77
2021/11/23 02:39:01;;;;;;;7.88;4.18;;;6.30;99.90;;;;;;4860676;29;20394;-75
2021/11/23 02:41:26;;;;;;;7.47;3.75;;;6.30;99.90;;;;;;4861368;29;20039;-88
2021/11/23 02:43:52;;;;;;;4.32;3.40;;;6.30;99.90;;;;;;4860105;29;20164;-85
2021/11/23 02:46:17;;;;;;;5.47;3.88;;;6.30;99.90;;;;;;4860988;29;20534;-87
2021/11/23 02:48:43;;;;;;;5.32;3.92;;;6.30;99.90;;;;;;4877296;29;20104;-88
2021/11/23 02:53:35;;;;;;;6.03;4.40;;;6.40;99.90;;;;;;4880967;29;20029;-82
2021/11/23 02:56:01;;;;;;;5.40;4.07;;;6.30;99.90;;;;;;4872817;29;20068;-77
2021/11/23 02:58:31;;;;;;;5.68;4.85;;;6.30;99.90;;;;;;4882613;29;20021;-86
2021/11/23 03:00:59;;;;;;;5.90;4.47;;;6.30;99.90;;;;;;4882901;29;20032;-86
2021/11/23 03:03:25;;;;;;;6.78;4.53;;;6.30;99.90;;;;;;4882653;29;20457;-77
2021/11/23 03:05:52;;;;;;;5.85;4.30;;;6.30;99.90;;;;;;4882871;29;20120;-81
2021/11/23 03:08:18;;;;;;;5.90;4.05;;;6.30;99.90;;;;;;4883198;29;20039;-89
2021/11/23 03:10:44;;;;;;;6.10;4.28;;;6.30;99.90;;;;;;4881756;29;20115;-76
2021/11/23 03:13:09;;;;;;;6.07;5.05;;;6.30;99.90;;;;;;4882887;29;20021;-89
2021/11/23 03:15:35;;;;;;;5.53;3.90;;;6.40;99.90;;;;;;4883192;29;20477;-88
2021/11/23 03:18:01;;;;;;;6.43;4.20;;;6.40;99.90;;;;;;4881950;29;20029;-76
2021/11/23 03:20:27;;;;;;;6.35;4.20;;;6.30;99.90;;;;;;4882974;29;20037;-77
2021/11/23 03:22:55;;;;;;;7.40;4.68;;;6.30;99.90;;;;;;4882721;29;20072;-85
2021/11/23 03:25:21;;;;;;;8.43;4.82;;;6.30;99.90;;;;;;4899040;29;20051;-78
2021/11/23 03:27:46;;;;;;;6.75;4.20;;;6.40;99.90;;;;;;4899102;29;20421;-87
2021/11/23 03:30:16;;;;;;;8.05;4.55;;;6.40;99.90;;;;;;4899536;29;20029;-88
2021/11/23 03:32:41;;;;;;;5.32;4.63;;;6.40;99.90;;;;;;4898974;29;20032;-77
2021/11/23 03:35:07;;;;;;;6.32;4.60;;;6.40;99.90;;;;;;4882724;29;20028;-87
2021/11/23 03:37:33;;;;;;;6.55;4.47;;;6.40;99.90;;;;;;4882779;29;20025;-83
2021/11/23 03:40:00;;;;;;;8.07;4.53;;;6.40;99.90;;;;;;4881620;29;20032;-81
2021/11/23 03:42:26;;;;;;;6.53;4.45;;;6.40;99.90;;;;;;4882904;29;20028;-77
2021/11/23 03:44:57;;;;;;;7.15;5.03;;;6.40;99.90;;;;;;4882628;29;20021;-79
2021/11/23 03:47:23;;;;;;;5.05;3.92;;;6.40;99.90;;;;;;4882116;29;20033;-88
2021/11/23 03:49:49;;;;;;;6.20;4.15;;;6.40;99.90;;;;;;4882240;29;20037;-87
2021/11/23 03:52:15;;;;;;;5.07;4.32;;;6.40;99.90;;;;;;4882120;29;20016;-85
2021/11/23 03:54:41;;;;;;;4.60;4.13;;;6.40;99.90;;;;;;4898413;29;20037;-87
2021/11/23 03:57:06;;;;;;;8.88;4.85;;;6.40;99.90;;;;;;4881883;29;20065;-84
2021/11/23 03:59:32;;;;;;;5.45;4.22;;;6.40;99.90;;;;;;4898419;29;20033;-80
2021/11/23 04:01:58;;;;;;;5.68;4.72;;;6.40;99.90;;;;;;4898284;29;20032;-73
2021/11/23 04:04:23;;;;;;;6.90;4.35;;;6.40;99.90;;;;;;4882186;29;20036;-77
2021/11/23 04:06:50;;;;;;;4.40;4.00;;;6.40;99.90;;;;;;4881077;29;20025;-86
2021/11/23 04:09:16;;;;;;;5.88;4.68;;;6.50;99.90;;;;;;4898302;29;20043;-88
2021/11/23 04:11:41;;;;;;;6.00;4.38;;;6.50;99.90;;;;;;4882075;29;20025;-75
2021/11/23 04:14:07;;;;;;;6.15;4.68;;;6.50;99.90;;;;;;4897979;29;20028;-88
2021/11/23 04:16:33;;;;;;;7.72;4.78;;;6.50;99.90;;;;;;4881765;29;20123;-74
2021/11/23 04:18:59;;;;;;;6.32;4.95;;;6.50;99.90;;;;;;4881365;29;20033;-86
2021/11/23 04:21:24;;;;;;;6.35;4.55;;;6.50;99.90;;;;;;4897941;29;20043;-77
2021/11/23 04:23:50;;;;;;;8.07;5.95;;;6.50;99.90;;;;;;4881553;29;20017;-76
2021/11/23 04:26:16;;;;;;;8.07;5.45;;;6.60;99.90;;;;;;4884193;29;20091;-83
2021/11/23 04:28:42;;;;;;;7.55;5.00;;;6.60;99.90;;;;;;4900316;29;20025;-88
2021/11/23 04:31:08;;;;;;;7.60;4.80;;;6.60;99.90;;;;;;4901365;29;20028;-76
2021/11/23 04:33:34;;;;;;;8.82;4.80;;;6.60;99.90;;;;;;4884515;29;20029;-76
2021/11/23 04:36:01;;;;;;;6.47;5.15;;;6.60;99.90;;;;;;4900079;29;20028;-88
2021/11/23 04:38:26;;;;;;;6.35;4.88;;;6.60;99.90;;;;;;4883432;29;20043;-75
2021/11/23 04:40:52;;;;;;;7.40;4.82;;;6.60;99.90;;;;;;4890377;29;20528;-78
2021/11/23 04:43:18;;;;;;;7.72;4.43;;;6.70;99.90;;;;;;4886527;29;20028;-86
2021/11/23 04:45:43;;;;;;;5.72;4.22;;;6.70;99.90;;;;;;4902288;29;20032;-86
2021/11/23 04:48:09;;;;;;;5.82;4.47;;;6.70;99.90;;;;;;4902321;29;20028;-75
2021/11/23 04:50:35;;;;;;;5.40;4.28;;;6.70;99.90;;;;;;4917956;29;20147;-80
2021/11/23 04:53:02;;;;;;;7.40;4.93;;;6.70;99.90;;;;;;4901575;29;20457;-75
2021/11/23 04:55:28;;;;;;;4.72;4.10;;;6.80;99.90;;;;;;4898204;29;20102;-83
2021/11/23 04:57:54;;;;;;;7.70;4.60;;;6.80;99.90;;;;;;4899314;29;20036;-84
2021/11/23 05:00:20;;;;;;;6.43;5.00;;;6.80;99.90;;;;;;4898005;29;20033;-88
2021/11/23 05:02:45;;;;;;;6.10;4.43;;;6.80;99.90;;;;;;4897410;29;20076;-84
2021/11/23 05:05:12;;;;;;;6.90;4.68;;;6.80;99.90;;;;;;4899949;29;20084;-86
2021/11/23 05:07:39;;;;;;;6.15;4.60;;;6.80;99.90;;;;;;4898057;29;20040;-77
2021/11/23 05:10:06;;;;;;;5.78;4.13;;;6.80;99.90;;;;;;4898305;29;20039;-75
2021/11/23 05:12:32;;;;;;;5.82;4.53;;;6.80;99.90;;;;;;4898722;29;20024;-76
2021/11/23 05:14:58;;;;;;;6.10;4.78;;;6.80;99.90;;;;;;4899474;29;20047;-80
2021/11/23 05:17:23;;;;;;;5.68;4.22;;;6.80;99.90;;;;;;4897714;29;20064;-76
2021/11/23 05:19:49;;;;;;;6.90;4.75;;;6.80;99.90;;;;;;4898119;29;20120;-88
2021/11/23 05:22:15;;;;;;;4.97;4.22;;;6.80;99.90;;;;;;4899756;29;20029;-78
2021/11/23 05:24:40;;;;;;;6.07;4.63;;;6.80;99.90;;;;;;4898686;29;20533;-92
2021/11/23 05:27:07;;;;;;;7.30;5.05;;;6.80;99.90;;;;;;4899622;29;20473;-83
2021/11/23 05:29:33;;;;;;;7.63;4.45;;;6.80;99.90;;;;;;4898163;29;20025;-89
2021/11/23 05:31:58;;;;;;;7.70;4.68;;;6.80;99.90;;;;;;4898074;29;20080;-90
2021/11/23 05:34:24;;;;;;;5.82;4.05;;;6.80;99.90;;;;;;4898206;29;20036;-79
2021/11/23 05:36:49;;;;;;;6.82;4.13;;;6.90;99.90;;;;;;4898092;29;20473;-85
2021/11/23 05:39:15;;;;;;;5.88;4.28;;;6.90;99.90;;;;;;4898754;29;20027;-79
2021/11/23 05:41:41;;;;;;;6.57;4.25;;;6.90;99.90;;;;;;4898865;29;20040;-90
2021/11/23 05:44:09;;;;;;;6.72;3.97;;;6.90;99.90;;;;;;4898092;29;20029;-81
2021/11/23 05:46:35;;;;;;;4.60;3.90;;;6.90;99.90;;;;;;4898159;29;20031;-90
2021/11/23 05:49:01;;;;;;;6.40;3.85;;;6.90;99.90;;;;;;4898507;29;20170;-82
2021/11/23 05:51:27;;;;;;;7.70;4.38;;;6.90;99.90;;;;;;4897840;29;20115;-83
2021/11/23 05:53:53;;;;;;;6.40;4.75;;;6.90;99.90;;;;;;4897519;29;20111;-86
2021/11/23 05:56:19;;;;;;;7.57;4.15;;;6.90;99.90;;;;;;4898807;29;20056;-75
2021/11/23 05:58:44;;;;;;;8.05;4.10;;;6.90;99.90;;;;;;4898432;29;20625;-80
2021/11/23 06:01:10;;;;;;;5.25;4.20;;;6.80;99.90;;;;;;4896665;29;20089;-77
2021/11/23 06:03:35;;;;;;;6.40;4.00;;;6.80;99.90;;;;;;4897139;29;20024;-86
2021/11/23 06:06:01;;;;;;;7.68;4.60;;;6.80;99.90;;;;;;4896681;29;20084;-75
2021/11/23 06:08:27;;;;;;;6.93;4.47;;;6.80;99.90;;;;;;4898372;29;20103;-76
2021/11/23 06:10:53;;;;;;;5.57;3.75;;;6.80;99.90;;;;;;4885427;29;20095;-75
2021/11/23 06:13:18;;;;;;;22.70;5.43;;;6.80;99.90;;;;;;4879041;29;20419;-89
2021/11/23 06:15:46;;;;;;;5.97;4.25;;;6.80;99.90;;;;;;4886742;29;20648;-89
2021/11/23 06:18:14;;;;;;;6.75;4.38;;;6.80;99.90;;;;;;4889184;29;20071;-81
2021/11/23 06:20:46;;;;;;;5.38;4.28;;;6.80;99.90;;;;;;4890665;29;20040;-83
2021/11/23 06:23:14;;;;;;;7.50;4.00;;;6.80;99.90;;;;;;4882041;29;20044;-83
2021/11/23 06:25:47;;;;;;;4.53;3.70;;;6.80;99.90;;;;;;4882561;29;20029;-81
2021/11/23 06:28:14;;;;;;;6.00;4.18;;;6.80;99.90;;;;;;4889294;29;20096;-88
2021/11/23 06:30:40;;;;;;;6.25;4.30;;;6.80;99.90;;;;;;4886557;29;20422;-86
2021/11/23 06:33:06;;;;;;;6.55;4.43;;;6.80;99.90;;;;;;4894322;29;20016;-84
2021/11/23 06:35:32;;;;;;;6.05;4.10;;;6.80;99.90;;;;;;4895930;29;20028;-75
2021/11/23 06:37:57;;;;;;;7.05;4.25;;;6.80;99.90;;;;;;4896620;29;20035;-85
2021/11/23 06:40:23;;;;;;;5.07;3.88;;;6.90;99.90;;;;;;4897968;29;20056;-77
2021/11/23 06:42:49;;;;;;;4.72;3.70;;;6.90;99.90;;;;;;4889581;29;20036;-73
2021/11/23 06:45:14;;;;;;;4.68;3.70;;;6.90;99.90;;;;;;4881256;29;20058;-75
2021/11/23 06:47:40;;;;;;;5.93;3.85;;;6.90;99.90;;;;;;4896438;29;20025;-77
2021/11/23 06:50:07;;;;;;;4.25;3.40;;;6.90;99.90;;;;;;4891325;29;20451;-80
2021/11/23 06:52:33;;;;;;;6.57;4.15;;;6.90;99.90;;;;;;4896275;29;20031;-78
2021/11/23 06:54:58;;;;;;;4.78;3.63;;;6.90;99.90;;;;;;4898636;29;20020;-79
2021/11/23 06:57:24;;;;;;;5.20;3.92;;;6.90;99.90;;;;;;4915360;29;20043;-75
2021/11/23 06:59:49;;;;;;;5.95;3.67;;;6.80;99.90;;;;;;4916912;29;20477;-82
2021/11/23 07:02:15;;;;;;;4.97;3.42;;;6.90;99.90;;;;;;4915681;29;20039;-70
2021/11/23 07:04:41;;;;;;;6.78;4.63;;;6.90;99.90;;;;;;4907155;29;20099;-70
2021/11/23 07:07:09;;;;;;;5.95;4.10;;;6.90;99.90;;;;;;4913558;29;20095;-79
2021/11/23 07:09:34;;;;;;;10.68;4.18;;;6.90;99.90;;;;;;4913486;29;20032;-82
2021/11/23 07:12:00;;;;;;;9.23;4.68;;;6.90;99.90;;;;;;4889984;29;20397;-74
2021/11/23 07:14:26;;;;;;;4.88;3.63;;;6.90;99.90;;;;;;4907502;29;20686;-78
2021/11/23 07:16:51;;;;;;;10.95;5.90;;;7.00;99.90;;;;;;4898483;29;20031;-76
2021/11/23 07:19:17;;;;;;;12.50;5.47;;;7.00;99.90;;;;;;4914374;29;20084;-82
2021/11/23 07:21:43;;;;;;;10.48;4.88;;;7.00;99.90;;;;;;4898958;29;20488;-88
2021/11/23 07:24:09;;;;;;;7.70;4.13;;;7.10;99.90;;;;;;4883942;29;20062;-78
2021/11/23 07:26:37;;;;;;;5.65;4.20;;;7.20;99.90;;;;;;4896788;29;20039;-81
2021/11/23 07:29:03;;;;;;;6.85;4.40;;;7.20;99.90;;;;;;4915450;29;20044;-78
2021/11/23 07:31:29;;;;;;;6.55;4.10;;;7.30;99.90;;;;;;4892559;29;20070;-82
2021/11/23 07:33:54;;;;;;;5.28;4.18;;;7.30;99.90;;;;;;4899091;29;20024;-74
2021/11/23 07:36:22;;;;;;;6.45;4.68;;;7.40;99.90;;;;;;4909960;29;20028;-78
2021/11/23 07:38:48;;;;;;;6.95;5.00;;;7.50;99.90;;;;;;4902504;29;20103;-81
2021/11/23 07:41:14;;;;;;;8.38;4.70;;;7.60;99.90;;;;;;4918934;29;20047;-76
2021/11/23 17:01:58;;;;;;;6.97;3.40;;;9.60;99.90;;;;;;4921202;23;20059;-74
2021/11/23 17:04:24;;;;;;;7.82;3.25;;;9.50;99.90;;;;;;4898337;29;20036;-74
2021/11/23 17:06:53;;;;;;;5.53;3.05;;;9.40;99.90;;;;;;4899257;29;20020;-70
2021/11/23 17:09:20;;;;;;;5.68;2.58;;;9.40;99.90;;;;;;4895277;29;20047;-72
2021/11/23 17:11:45;;;;;;;4.93;2.72;;;9.40;99.90;;;;;;4891484;29;20031;-73
2021/11/23 17:14:13;;;;;;;3.78;2.42;;;9.30;99.90;;;;;;4896840;29;20115;-73
2021/11/23 17:16:38;;;;;;;6.28;2.85;;;9.20;99.90;;;;;;4895073;29;20032;-73
2021/11/23 17:19:04;;;;;;;5.60;2.70;;;9.20;99.90;;;;;;4895804;29;20385;-73
2021/11/23 17:21:30;;;;;;;3.25;2.00;;;9.10;99.90;;;;;;4892984;29;20044;-73
2021/11/23 17:23:55;;;;;;;5.45;2.80;;;9.10;99.90;;;;;;4894250;29;20020;-75
2021/11/23 17:26:21;;;;;;;4.55;2.55;;;9.10;99.90;;;;;;4894249;29;20100;-75
2021/11/23 17:28:47;;;;;;;4.50;2.33;;;9.00;99.90;;;;;;4893640;29;20040;-73
2021/11/23 17:31:12;;;;;;;4.75;2.65;;;9.00;99.90;;;;;;4893888;29;20036;-74
2021/11/23 17:33:38;;;;;;;5.95;2.60;;;9.00;99.90;;;;;;4895416;29;20060;-73
2021/11/23 17:36:04;;;;;;;4.47;2.60;;;8.90;99.90;;;;;;4893957;29;20055;-75
2021/11/23 17:38:29;;;;;;;5.88;3.45;;;8.90;99.90;;;;;;4894318;29;20036;-80
2021/11/23 17:40:55;;;;;;;6.10;2.50;;;8.90;99.90;;;;;;4894515;29;20088;-74
2021/11/23 17:43:22;;;;;;;5.32;3.30;;;8.80;99.90;;;;;;4893402;29;20106;-74
2021/11/23 17:45:47;;;;;;;7.72;3.65;;;8.80;99.90;;;;;;4892999;29;20029;-73
2021/11/23 17:48:15;;;;;;;6.35;3.53;;;8.80;99.90;;;;;;4894530;29;20107;-74
2021/11/23 17:50:41;;;;;;;4.78;2.67;;;8.80;99.90;;;;;;4891951;29;20031;-76
2021/11/23 17:53:07;;;;;;;5.88;2.78;;;8.70;99.90;;;;;;4894366;29;20108;-73
2021/11/23 17:55:33;;;;;;;4.97;3.28;;;8.70;99.90;;;;;;4893618;29;20397;-73
2021/11/23 17:57:59;;;;;;;4.25;2.65;;;8.70;99.90;;;;;;4894883;29;20473;-74
2021/11/23 18:00:36;;;;;;;8.38;2.75;;;8.70;99.90;;;;;;4894856;29;20056;-73
2021/11/23 18:03:02;;;;;;;5.47;2.75;;;8.60;99.90;;;;;;4907568;29;20032;-75
2021/11/23 18:05:28;;;;;;;5.70;2.55;;;8.60;99.90;;;;;;4894324;29;20032;-76
2021/11/23 18:07:55;;;;;;;4.18;2.70;;;8.60;99.90;;;;;;4887563;29;20382;-75
2021/11/23 18:10:22;;;;;;;6.97;2.40;;;8.60;99.90;;;;;;4875558;29;20123;-76
2021/11/23 18:12:54;;;;;;;2.58;2.22;;;8.60;99.90;;;;;;4874456;29;20033;-76
2021/11/23 18:15:25;;;;;;;25.20;5.32;;;8.60;99.90;;;;;;4874829;29;20025;-75
2021/11/23 18:17:52;;;;;;;5.83;3.80;;;8.60;99.90;;;;;;4876417;29;20036;-75
2021/11/23 18:20:18;;;;;;;4.65;3.70;;;8.60;99.90;;;;;;4892726;29;20060;-79
2021/11/23 18:22:45;;;;;;;5.65;3.75;;;8.60;99.90;;;;;;4893305;29;20076;-77
2021/11/23 18:25:10;;;;;;;5.97;4.00;;;8.60;99.90;;;;;;4893107;29;20088;-76
2021/11/23 18:27:36;;;;;;;7.35;4.60;;;8.50;99.90;;;;;;4892943;29;20020;-77
2021/11/23 18:30:04;;;;;;;7.15;3.65;;;8.50;99.90;;;;;;4893652;29;20167;-74
2021/11/23 18:32:30;;;;;;;5.72;3.20;;;8.50;99.90;;;;;;4891897;29;20036;-75
2021/11/23 18:34:55;;;;;;;5.13;3.00;;;8.50;99.90;;;;;;4892147;29;20043;-75
2021/11/23 18:37:23;;;;;;;5.68;3.85;;;8.40;99.90;;;;;;4891827;29;20426;-75
2021/11/23 18:39:52;;;;;;;4.35;3.55;;;8.40;99.90;;;;;;4889280;29;20485;-75
2021/11/23 18:42:19;;;;;;;3.13;2.75;;;8.40;99.90;;;;;;4877669;29;20041;-75
2021/11/23 18:44:45;;;;;;;6.80;3.13;;;8.40;99.90;;;;;;4892228;29;20504;-75
2021/11/23 18:47:11;;;;;;;4.38;3.42;;;8.40;99.90;;;;;;4887867;29;20041;-76
2021/11/23 18:49:38;;;;;;;3.95;3.00;;;8.40;99.90;;;;;;4892074;29;20401;-76
2021/11/23 18:52:04;;;;;;;4.47;3.22;;;8.40;99.90;;;;;;4893360;29;20116;-76
2021/11/23 18:54:30;;;;;;;5.05;2.80;;;8.40;99.90;;;;;;4890762;29;20140;-75
2021/11/23 18:56:55;;;;;;;7.72;4.28;;;8.40;99.90;;;;;;4892431;29;20031;-75
2021/11/23 18:59:23;;;;;;;4.85;3.55;;;8.40;99.90;;;;;;4887262;29;20116;-76
2021/11/23 19:01:48;;;;;;;6.60;4.00;;;8.40;99.90;;;;;;4885134;29;20052;-74
2021/11/23 19:04:14;;;;;;;8.75;4.28;;;8.40;99.90;;;;;;4878438;29;20556;-74
2021/11/23 19:06:39;;;;;;;4.85;4.05;;;8.40;99.90;;;;;;4877800;29;20035;-74
2021/11/23 19:09:05;;;;;;;5.03;3.55;;;8.50;99.90;;;;;;4893904;29;20024;-78
2021/11/23 19:11:32;;;;;;;5.47;3.38;;;8.60;99.90;;;;;;4893863;29;20036;-76
2021/11/23 19:13:58;;;;;;;3.70;2.92;;;8.60;99.90;;;;;;4894413;29;20104;-75
2021/11/23 19:16:24;;;;;;;4.68;3.03;;;8.70;99.90;;;;;;4894071;29;20040;-75
2021/11/23 19:18:49;;;;;;;5.15;3.40;;;8.70;99.90;;;;;;4889825;29;20021;-76
2021/11/23 19:21:15;;;;;;;4.70;3.15;;;8.80;99.90;;;;;;4873676;29;20037;-76
2021/11/23 19:23:42;;;;;;;18.80;4.15;;;8.80;99.90;;;;;;4874527;29;20658;-75
2021/11/23 19:26:07;;;;;;;2.92;2.72;;;8.80;99.90;;;;;;4874464;29;20033;-75
2021/11/23 19:28:33;;;;;;;4.28;3.25;;;8.90;99.90;;;;;;4875040;29;20025;-76
2021/11/23 19:30:59;;;;;;;3.85;3.10;;;8.90;99.90;;;;;;4886541;29;20131;-79
2021/11/23 19:33:25;;;;;;;5.35;3.80;;;8.90;99.90;;;;;;4890597;29;20402;-75
2021/11/23 19:35:51;;;;;;;5.25;3.67;;;9.00;99.90;;;;;;4877415;29;20032;-80
2021/11/23 19:38:18;;;;;;;4.35;3.80;;;9.00;99.90;;;;;;4881667;29;20404;-74
2021/11/23 19:40:45;;;;;;;3.42;3.05;;;9.00;99.90;;;;;;4893120;29;20542;-76
2021/11/23 19:43:12;;;;;;;3.53;3.22;;;9.00;99.90;;;;;;4892685;29;20091;-74
2021/11/23 19:45:38;;;;;;;3.75;3.45;;;9.00;99.90;;;;;;4897357;29;20048;-75
2021/11/23 19:48:04;;;;;;;4.57;4.10;;;9.00;99.90;;;;;;4893798;29;20032;-76
2021/11/23 19:50:31;;;;;;;4.72;3.80;;;9.00;99.90;;;;;;4894342;29;20029;-74
2021/11/23 19:52:57;;;;;;;5.15;3.60;;;9.00;99.90;;;;;;4891129;29;20029;-75
2021/11/23 19:55:24;;;;;;;5.80;3.40;;;8.90;99.90;;;;;;4877562;29;20033;-81
2021/11/23 19:57:55;;;;;;;3.65;3.10;;;8.90;99.90;;;;;;4889823;29;20043;-78
2021/11/23 20:00:25;;;;;;;4.88;4.05;;;8.90;99.90;;;;;;4896100;29;20033;-79
2021/11/23 20:02:52;;;;;;;4.97;3.80;;;8.90;99.90;;;;;;4893283;29;20069;-77
2021/11/23 20:05:41;;;;;;;4.13;3.72;;;8.80;99.90;;;;;;4895602;29;20055;-81
2021/11/23 20:08:26;;;;;;;3.72;3.28;;;8.80;99.90;;;;;;4896161;29;20120;-78
2021/11/23 20:10:52;;;;;;;4.43;3.50;;;8.80;99.90;;;;;;4895056;29;20123;-81
2021/11/23 20:13:17;;;;;;;5.53;3.65;;;8.80;99.90;;;;;;4894358;29;20024;-80
2021/11/23 20:15:43;;;;;;;4.85;3.50;;;8.90;99.90;;;;;;4894271;29;20041;-82
2021/11/23 20:18:10;;;;;;;4.95;3.17;;;8.80;99.90;;;;;;4894959;29;20473;-79
2021/11/23 20:20:36;;;;;;;5.03;3.97;;;8.90;99.90;;;;;;4895466;29;20184;-82
2021/11/23 20:23:02;;;;;;;4.63;3.40;;;8.90;99.90;;;;;;4894696;29;20123;-79
2021/11/23 20:25:28;;;;;;;3.90;3.00;;;8.90;99.90;;;;;;4894767;29;20500;-79
2021/11/23 20:27:54;;;;;;;4.30;3.17;;;8.90;99.90;;;;;;4892021;29;20036;-80
2021/11/23 20:30:23;;;;;;;4.68;3.45;;;8.90;99.90;;;;;;4892897;29;20032;-79
2021/11/23 20:32:51;;;;;;;4.45;3.92;;;8.90;99.90;;;;;;4896211;29;20225;-82
2021/11/23 20:35:18;;;;;;;4.35;3.95;;;8.90;99.90;;;;;;4895418;29;20100;-80
2021/11/23 20:37:45;;;;;;;3.80;3.15;;;9.00;99.90;;;;;;4895701;29;20441;-78
2021/11/23 20:40:11;;;;;;;5.32;3.38;;;9.00;99.90;;;;;;4892115;29;20037;-80
2021/11/23 20:42:37;;;;;;;3.85;3.47;;;9.00;99.90;;;;;;4893870;29;20040;-80
2021/11/23 20:45:04;;;;;;;4.18;3.53;;;9.00;99.90;;;;;;4894360;29;20017;-81
2021/11/23 20:47:32;;;;;;;4.38;3.70;;;9.10;99.90;;;;;;4883858;29;20036;-82
2021/11/23 20:49:58;;;;;;;7.05;4.00;;;9.00;99.90;;;;;;4892535;29;20032;-73
2021/11/23 20:52:23;;;;;;;5.55;3.83;;;9.00;99.90;;;;;;4891997;29;20052;-75
2021/11/23 20:54:50;;;;;;;4.97;4.03;;;9.10;99.90;;;;;;4877805;29;20056;-74
2021/11/23 20:57:17;;;;;;;4.63;3.80;;;9.00;99.90;;;;;;4882835;29;20033;-74
2021/11/23 20:59:43;;;;;;;5.00;3.78;;;9.10;99.90;;;;;;4890307;29;20056;-77
2021/11/23 21:02:09;;;;;;;3.45;3.15;;;9.10;99.90;;;;;;4894149;29;20131;-79
2021/11/23 21:04:35;;;;;;;3.97;3.25;;;9.00;99.90;;;;;;4890712;29;20033;-73
2021/11/23 21:07:00;;;;;;;4.40;3.55;;;9.00;99.90;;;;;;4888951;29;20037;-80
2021/11/23 21:09:26;;;;;;;5.03;3.42;;;9.00;99.90;;;;;;4889843;29;20024;-75
2021/11/23 21:11:52;;;;;;;4.65;3.58;;;9.00;99.90;;;;;;4876722;29;20501;-75
2021/11/23 21:14:17;;;;;;;4.13;3.72;;;9.00;99.90;;;;;;4887007;29;20055;-73
2021/11/23 21:16:43;;;;;;;5.10;4.00;;;9.00;99.90;;;;;;4894827;29;20414;-74
2021/11/23 21:19:09;;;;;;;4.72;3.90;;;9.00;99.90;;;;;;4894897;29;20092;-74
2021/11/23 21:21:34;;;;;;;5.72;4.13;;;9.00;99.90;;;;;;4878412;29;20045;-72
2021/11/23 21:24:00;;;;;;;6.68;4.38;;;9.10;99.90;;;;;;4893619;29;20024;-74
2021/11/23 21:26:26;;;;;;;4.45;4.03;;;9.10;99.90;;;;;;4892535;29;20056;-76
2021/11/23 21:28:54;;;;;;;5.03;4.47;;;9.10;99.90;;;;;;4878494;29;20060;-74
2021/11/23 21:31:23;;;;;;;6.65;4.82;;;9.20;99.90;;;;;;4888120;29;20626;-79
2021/11/23 21:33:49;;;;;;;4.25;3.63;;;9.20;99.90;;;;;;4885816;29;20028;-75
2021/11/23 21:36:16;;;;;;;5.03;3.83;;;9.20;99.90;;;;;;4894485;29;20533;-77
2021/11/23 21:38:42;;;;;;;5.30;4.07;;;9.20;99.90;;;;;;4896453;29;20029;-82
2021/11/23 21:41:08;;;;;;;4.05;3.60;;;9.30;99.90;;;;;;4887936;29;20041;-74
2021/11/23 21:43:47;;;;;;;6.28;3.92;;;9.30;99.90;;;;;;4877757;29;20124;-76
2021/11/23 21:46:16;;;;;;;5.25;4.10;;;9.30;99.90;;;;;;4896309;29;20549;-85
2021/11/23 21:48:43;;;;;;;5.35;4.13;;;9.30;99.90;;;;;;4898487;29;20031;-85
2021/11/23 21:51:10;;;;;;;5.07;4.20;;;9.30;99.90;;;;;;4897022;29;20032;-77
2021/11/23 21:53:36;;;;;;;4.30;3.90;;;9.30;99.90;;;;;;4884350;29;20032;-75
2021/11/23 21:56:02;;;;;;;5.70;4.43;;;9.40;99.90;;;;;;4892651;29;20367;-75
2021/11/23 21:58:27;;;;;;;4.63;3.80;;;9.40;99.90;;;;;;4895900;29;20024;-78
2021/11/23 22:00:53;;;;;;;5.63;4.70;;;9.40;99.90;;;;;;4874227;29;20390;-75
2021/11/23 22:03:19;;;;;;;5.68;4.90;;;9.40;99.90;;;;;;4842921;29;20026;-76
2021/11/23 22:05:45;;;;;;;5.70;4.80;;;9.30;99.90;;;;;;4844327;29;20078;-81
2021/11/23 22:08:13;;;;;;;7.63;4.95;;;9.40;99.90;;;;;;4844988;29;20026;-82
2021/11/23 22:10:43;;;;;;;5.65;5.15;;;9.30;99.90;;;;;;4860511;29;20026;-81
2021/11/23 22:13:10;;;;;;;8.57;6.22;;;9.30;99.90;;;;;;4844972;29;20463;-76